Time;durP1;ratioP1;P1;durP2;ratioP2;P2;SDS_P1;SDS_P2;PMS_P1;PMS_P2;Temp;Humidity;BMP_temperature;BMP_pressure;BME280_temperature;BME280_humidity;BME280_pressure;Samples;Min_cycle;Max_cycle;Signal;HPM_P1;HPM_P2
2023/04/14 00:01:29;;;;;;;4.33;0.80;;;9.10;99.90;;;;;;4977576;28;20187;-84
2023/04/14 00:03:55;;;;;;;2.33;0.80;;;9.10;99.90;;;;;;4977381;28;20230;-84
2023/04/14 00:06:21;;;;;;;1.83;0.83;;;9.00;99.90;;;;;;4977172;28;20179;-84
2023/04/14 00:08:47;;;;;;;2.67;1.05;;;9.00;99.90;;;;;;4976956;28;20650;-84
2023/04/14 00:11:13;;;;;;;1.77;0.80;;;9.00;99.90;;;;;;4977871;28;20218;-85
2023/04/14 00:13:38;;;;;;;1.60;0.80;;;8.90;99.90;;;;;;4980609;28;20237;-84
2023/04/14 00:16:05;;;;;;;1.40;0.70;;;8.90;99.90;;;;;;4977873;28;20640;-84
2023/04/14 00:18:31;;;;;;;2.25;0.90;;;8.90;99.90;;;;;;4979658;28;20199;-84
2023/04/14 00:20:57;;;;;;;2.40;1.30;;;8.90;99.90;;;;;;4979110;28;20196;-84
2023/04/14 00:23:22;;;;;;;2.87;0.90;;;8.80;99.90;;;;;;4977570;28;20182;-84
2023/04/14 00:25:49;;;;;;;2.53;0.90;;;8.80;99.90;;;;;;4976498;28;20627;-84
2023/04/14 00:28:14;;;;;;;3.08;0.73;;;8.80;99.90;;;;;;4976873;28;20216;-83
2023/04/14 00:30:44;;;;;;;2.45;0.70;;;8.70;99.90;;;;;;4973677;28;20204;-84
2023/04/14 00:33:09;;;;;;;4.17;0.90;;;8.70;99.90;;;;;;4973858;28;20172;-85
2023/04/14 00:35:35;;;;;;;1.83;0.77;;;8.70;99.90;;;;;;4974738;28;20266;-84
2023/04/14 00:38:01;;;;;;;2.97;0.80;;;8.70;99.90;;;;;;4974359;28;20625;-84
2023/04/14 00:40:29;;;;;;;2.28;0.70;;;8.60;99.90;;;;;;4974673;28;21209;-84
2023/04/14 00:42:55;;;;;;;1.63;0.60;;;8.60;99.90;;;;;;4975467;28;20205;-84
2023/04/14 00:45:20;;;;;;;2.30;0.83;;;8.60;99.90;;;;;;4975610;28;20179;-83
2023/04/14 00:47:49;;;;;;;1.43;0.70;;;8.60;99.90;;;;;;4974399;28;20180;-86
2023/04/14 00:50:19;;;;;;;2.80;0.90;;;8.60;99.90;;;;;;4979079;28;20278;-85
2023/04/14 00:52:48;;;;;;;4.00;1.10;;;8.60;99.90;;;;;;4975281;28;20624;-86
2023/04/14 00:55:16;;;;;;;3.95;0.90;;;8.60;99.90;;;;;;4990368;28;20529;-85
2023/04/14 00:57:43;;;;;;;2.22;0.82;;;8.50;99.90;;;;;;4976197;28;20174;-85
2023/04/14 01:00:11;;;;;;;4.38;0.95;;;8.50;99.90;;;;;;4977514;28;20200;-86
2023/04/14 01:02:37;;;;;;;2.53;0.70;;;8.50;99.90;;;;;;4984277;28;20180;-85
2023/04/14 01:05:22;;;;;;;2.53;0.90;;;8.50;99.90;;;;;;4969709;28;20238;-85
2023/04/14 01:07:48;;;;;;;3.30;1.57;;;8.40;99.90;;;;;;4973686;28;20180;-85
2023/04/14 01:10:14;;;;;;;2.13;1.02;;;8.40;99.90;;;;;;4987947;28;20270;-85
2023/04/14 01:13:32;;;;;;;5.35;1.60;;;8.40;99.90;;;;;;4969439;28;20175;-85
2023/04/14 01:16:17;;;;;;;3.03;1.10;;;8.40;99.90;;;;;;4945860;29;20230;-85
2023/04/14 01:19:25;;;;;;;2.05;0.82;;;8.40;99.90;;;;;;4939398;28;20956;-86
2023/04/14 01:21:56;;;;;;;3.35;1.00;;;8.40;99.90;;;;;;4929961;28;20187;-85
2023/04/14 01:24:34;;;;;;;2.08;0.90;;;8.40;99.90;;;;;;4972908;28;20180;-85
2023/04/14 01:27:20;;;;;;;3.45;1.10;;;8.40;99.90;;;;;;4979442;28;20534;-85
2023/04/14 01:30:15;;;;;;;1.95;1.20;;;8.30;99.90;;;;;;4972706;28;20210;-85
2023/04/14 01:32:44;;;;;;;2.05;1.08;;;8.30;99.90;;;;;;4973010;28;20183;-85
2023/04/14 01:35:17;;;;;;;5.45;2.00;;;8.30;99.90;;;;;;4972371;28;20183;-86
2023/04/14 01:37:48;;;;;;;5.32;2.00;;;8.30;99.90;;;;;;4972838;28;20176;-85
2023/04/14 01:40:17;;;;;;;2.83;1.67;;;8.30;99.90;;;;;;4971747;28;20253;-85
2023/04/14 01:42:58;;;;;;;2.70;1.70;;;8.30;99.90;;;;;;4972880;28;20187;-85
2023/04/14 01:45:27;;;;;;;5.97;1.35;;;8.20;99.90;;;;;;4972211;28;20864;-85
2023/04/14 01:47:54;;;;;;;3.20;1.48;;;8.20;99.90;;;;;;4988614;28;20190;-85
2023/04/14 01:50:22;;;;;;;1.48;0.98;;;8.20;99.90;;;;;;4971872;28;20203;-85
2023/04/14 01:52:52;;;;;;;3.30;1.15;;;8.20;99.90;;;;;;4972644;28;20190;-85
2023/04/14 01:55:20;;;;;;;3.50;1.45;;;8.20;99.90;;;;;;4972319;28;20172;-85
2023/04/14 01:57:49;;;;;;;3.78;1.80;;;8.20;99.90;;;;;;4972240;28;20176;-85
2023/04/14 02:00:16;;;;;;;3.40;1.60;;;8.10;99.90;;;;;;4972363;28;20679;-86
2023/04/14 02:02:45;;;;;;;2.78;1.30;;;8.10;99.90;;;;;;4972348;28;20194;-86
2023/04/14 02:05:12;;;;;;;2.05;0.95;;;8.10;99.90;;;;;;4990083;28;20179;-86
2023/04/14 02:07:39;;;;;;;2.85;1.10;;;8.10;99.90;;;;;;4971994;28;20183;-86
2023/04/14 02:10:08;;;;;;;4.75;1.65;;;8.00;99.90;;;;;;4972088;28;20243;-86
2023/04/14 02:12:38;;;;;;;3.35;1.27;;;8.10;99.90;;;;;;4971835;28;20186;-86
2023/04/14 02:15:05;;;;;;;3.78;1.30;;;8.00;99.90;;;;;;4972127;28;20175;-86
2023/04/14 02:17:33;;;;;;;2.25;1.00;;;7.90;99.90;;;;;;4973950;28;20207;-84
2023/04/14 02:20:00;;;;;;;3.03;1.77;;;7.90;99.90;;;;;;4972267;28;20196;-84
2023/04/14 02:22:26;;;;;;;3.33;1.25;;;7.90;99.90;;;;;;4972613;28;20183;-85
2023/04/14 02:24:54;;;;;;;2.30;1.13;;;7.90;99.90;;;;;;4972261;28;20183;-84
2023/04/14 02:27:34;;;;;;;2.67;1.10;;;7.90;99.90;;;;;;4972015;28;20270;-85
2023/04/14 02:30:13;;;;;;;3.28;1.30;;;7.80;99.90;;;;;;4971860;28;20262;-85
2023/04/14 02:32:45;;;;;;;3.47;1.27;;;7.80;99.90;;;;;;4973401;28;20570;-84
2023/04/14 02:35:20;;;;;;;3.08;1.05;;;7.80;99.90;;;;;;4972962;28;20176;-85
2023/04/14 02:37:52;;;;;;;3.55;1.33;;;7.80;99.90;;;;;;4971970;28;20290;-85
2023/04/14 02:40:23;;;;;;;4.55;1.90;;;7.80;99.90;;;;;;4972116;28;20195;-84
2023/04/14 02:42:56;;;;;;;3.10;1.35;;;7.80;99.90;;;;;;4973976;28;20179;-84
2023/04/14 02:45:26;;;;;;;2.63;1.52;;;7.80;99.90;;;;;;4970884;28;20222;-83
2023/04/14 02:48:00;;;;;;;2.70;1.20;;;7.80;99.90;;;;;;4971904;28;20261;-84
2023/04/14 02:50:29;;;;;;;3.47;1.65;;;7.70;99.90;;;;;;4970927;28;20254;-84
2023/04/14 02:53:03;;;;;;;3.50;1.40;;;7.70;99.90;;;;;;4986913;28;20203;-84
2023/04/14 02:55:34;;;;;;;4.47;1.73;;;7.70;99.90;;;;;;4970726;28;20210;-84
2023/04/14 02:58:00;;;;;;;3.95;1.50;;;7.70;99.90;;;;;;4971333;28;20186;-84
2023/04/14 03:00:30;;;;;;;2.80;1.30;;;7.70;99.90;;;;;;4970876;28;20569;-84
2023/04/14 03:02:58;;;;;;;4.13;1.65;;;7.70;99.90;;;;;;4971341;28;20751;-83
2023/04/14 03:05:25;;;;;;;2.83;1.38;;;7.70;99.90;;;;;;4970768;28;20219;-83
2023/04/14 03:07:59;;;;;;;2.50;1.52;;;7.60;99.90;;;;;;4987445;28;20190;-83
2023/04/14 03:10:26;;;;;;;1.75;1.20;;;7.60;99.90;;;;;;4970862;28;20211;-83
2023/04/14 03:12:53;;;;;;;2.28;1.40;;;7.60;99.90;;;;;;4971242;28;20183;-83
2023/04/14 03:15:21;;;;;;;2.92;1.35;;;7.60;99.90;;;;;;4971054;28;20167;-84
2023/04/14 03:17:52;;;;;;;3.33;1.30;;;7.50;99.90;;;;;;4973017;28;20203;-83
2023/04/14 03:20:22;;;;;;;2.85;1.40;;;7.40;99.90;;;;;;4971216;28;20207;-84
2023/04/14 03:22:56;;;;;;;3.55;1.42;;;7.40;99.90;;;;;;4986767;28;20234;-83
2023/04/14 03:25:36;;;;;;;4.70;1.35;;;7.40;99.90;;;;;;4971006;28;20540;-83
2023/04/14 03:28:08;;;;;;;2.53;1.15;;;7.40;99.90;;;;;;4987116;28;20180;-84
2023/04/14 03:30:37;;;;;;;4.57;1.17;;;7.30;99.90;;;;;;4987085;28;20573;-83
2023/04/14 03:33:07;;;;;;;2.28;1.33;;;7.30;99.90;;;;;;4986747;28;20178;-83
2023/04/14 03:35:36;;;;;;;3.85;1.50;;;7.20;99.90;;;;;;4988103;28;20180;-83
2023/04/14 03:38:07;;;;;;;2.67;1.13;;;7.20;99.90;;;;;;4972453;28;20224;-83
2023/04/14 03:40:37;;;;;;;7.72;1.50;;;7.20;99.90;;;;;;4988354;28;20623;-83
2023/04/14 03:43:08;;;;;;;3.25;1.58;;;7.20;99.90;;;;;;4971155;28;20267;-83
2023/04/14 03:45:37;;;;;;;3.92;1.65;;;7.10;99.90;;;;;;4970675;28;20233;-83
2023/04/14 03:48:07;;;;;;;5.30;2.00;;;7.10;99.90;;;;;;4970484;28;20164;-82
2023/04/14 03:50:40;;;;;;;3.58;1.75;;;7.10;99.90;;;;;;4970308;28;20269;-83
2023/04/14 03:53:11;;;;;;;2.58;1.40;;;7.10;99.90;;;;;;4986647;28;20199;-82
2023/04/14 03:55:39;;;;;;;3.25;1.40;;;7.10;99.90;;;;;;4990814;28;20187;-84
2023/04/14 03:58:07;;;;;;;3.92;1.60;;;7.00;99.90;;;;;;4970854;28;20199;-84
2023/04/14 04:00:34;;;;;;;3.92;1.70;;;7.00;99.90;;;;;;4986580;28;20270;-84
2023/04/14 04:03:01;;;;;;;2.70;1.20;;;7.00;99.90;;;;;;4987453;28;20188;-84
2023/04/14 04:05:27;;;;;;;5.03;1.20;;;7.00;99.90;;;;;;4973392;28;20215;-84
2023/04/14 04:07:55;;;;;;;2.90;1.53;;;7.00;99.90;;;;;;5015499;23;20688;-80
2023/04/14 04:10:23;;;;;;;2.50;1.30;;;7.00;99.90;;;;;;5065312;28;20644;-78
2023/04/14 04:12:50;;;;;;;3.10;1.58;;;7.00;99.90;;;;;;5054410;28;20179;-79
2023/04/14 04:15:16;;;;;;;5.40;1.65;;;7.00;99.90;;;;;;5041097;28;20588;-80
2023/04/14 04:17:43;;;;;;;3.65;1.30;;;7.00;99.90;;;;;;5047934;28;20206;-80
2023/04/14 04:20:14;;;;;;;4.40;1.60;;;7.00;99.90;;;;;;5045150;28;20804;-80
2023/04/14 04:22:44;;;;;;;3.50;1.80;;;7.00;99.90;;;;;;5004800;28;20184;-80
2023/04/14 04:25:10;;;;;;;2.90;1.50;;;7.00;99.90;;;;;;5033735;28;20181;-80
2023/04/14 04:27:39;;;;;;;6.25;1.85;;;7.00;99.90;;;;;;5016896;28;20248;-80
2023/04/14 04:30:15;;;;;;;5.65;1.65;;;7.00;99.90;;;;;;5033535;28;20213;-80
2023/04/14 04:32:41;;;;;;;4.78;2.08;;;6.90;99.90;;;;;;5024024;28;20170;-79
2023/04/14 04:35:10;;;;;;;3.28;1.52;;;7.00;99.90;;;;;;5035854;28;20178;-80
2023/04/14 04:37:37;;;;;;;4.63;2.13;;;7.00;99.90;;;;;;5016320;28;20219;-80
2023/04/14 04:40:03;;;;;;;5.28;2.40;;;7.00;99.90;;;;;;5033477;28;20216;-80
2023/04/14 04:42:30;;;;;;;3.25;1.85;;;7.00;99.90;;;;;;5032801;28;20543;-80
2023/04/14 04:44:56;;;;;;;3.33;2.40;;;7.00;99.90;;;;;;5016463;28;20177;-79
2023/04/14 04:47:22;;;;;;;5.07;2.37;;;7.00;99.90;;;;;;5016466;28;20174;-79
2023/04/14 04:49:48;;;;;;;7.70;2.60;;;7.00;99.90;;;;;;5016434;28;20678;-80
2023/04/14 04:52:15;;;;;;;7.07;2.83;;;7.00;99.90;;;;;;5016118;28;20177;-80
2023/04/14 04:54:40;;;;;;;4.03;2.17;;;7.00;99.90;;;;;;5016211;28;20166;-80
2023/04/14 04:57:07;;;;;;;2.60;2.17;;;7.00;99.90;;;;;;5017354;28;20176;-80
2023/04/14 04:59:33;;;;;;;2.90;1.93;;;7.00;99.90;;;;;;5032593;28;20554;-80
2023/04/14 05:01:58;;;;;;;3.30;2.23;;;7.00;99.90;;;;;;5033022;28;20173;-80
2023/04/14 05:04:24;;;;;;;7.03;1.90;;;7.00;99.90;;;;;;5032649;28;20181;-80
2023/04/14 05:06:50;;;;;;;3.90;2.20;;;7.00;99.90;;;;;;5033180;28;20177;-80
2023/04/14 05:09:16;;;;;;;3.20;1.75;;;7.00;99.90;;;;;;5036268;28;20211;-80
2023/04/14 05:11:42;;;;;;;8.03;2.13;;;7.10;99.90;;;;;;5034307;28;20169;-79
2023/04/14 05:14:08;;;;;;;7.23;1.97;;;7.10;99.90;;;;;;5033512;28;20609;-80
2023/04/14 05:16:33;;;;;;;9.53;2.97;;;7.10;99.90;;;;;;4999223;28;20576;-80
2023/04/14 05:19:00;;;;;;;9.82;1.90;;;7.00;99.90;;;;;;5033536;28;20209;-79
2023/04/14 05:21:26;;;;;;;3.25;2.30;;;7.10;99.90;;;;;;5029244;28;20260;-79
2023/04/14 05:23:52;;;;;;;3.17;1.87;;;7.10;99.90;;;;;;4996555;28;20230;-80
2023/04/14 05:26:18;;;;;;;3.90;2.13;;;7.10;99.90;;;;;;5013588;28;20648;-79
2023/04/14 05:28:43;;;;;;;4.57;2.40;;;7.10;99.90;;;;;;4996462;28;20623;-81
2023/04/14 05:31:09;;;;;;;5.73;2.57;;;7.10;99.90;;;;;;5012674;28;20269;-81
2023/04/14 05:33:35;;;;;;;4.63;2.43;;;7.20;99.90;;;;;;5012556;28;20179;-80
2023/04/14 05:36:01;;;;;;;2.80;1.77;;;7.20;99.90;;;;;;4995742;28;20261;-79
2023/04/14 05:38:27;;;;;;;4.50;2.77;;;7.30;99.90;;;;;;5012806;28;20198;-80
2023/04/14 05:40:52;;;;;;;4.33;2.00;;;7.30;99.90;;;;;;5013568;28;21484;-80
2023/04/14 05:43:18;;;;;;;5.60;3.30;;;7.30;99.90;;;;;;5012632;28;20579;-81
2023/04/14 05:45:47;;;;;;;8.17;3.40;;;7.30;99.90;;;;;;5028747;28;20726;-81
2023/04/14 05:48:13;;;;;;;4.50;2.40;;;7.30;99.90;;;;;;5033078;28;20635;-80
2023/04/14 05:50:39;;;;;;;3.70;2.08;;;7.40;99.90;;;;;;5026122;28;20189;-80
2023/04/14 05:53:05;;;;;;;5.85;2.30;;;7.50;99.90;;;;;;5041888;28;20189;-81
2023/04/14 05:55:31;;;;;;;3.03;1.73;;;7.60;99.90;;;;;;5039268;28;20188;-80
2023/04/14 05:57:58;;;;;;;2.60;1.43;;;7.70;99.90;;;;;;5025818;28;20611;-81
2023/04/14 06:00:24;;;;;;;3.95;1.92;;;7.70;99.90;;;;;;5035107;28;20246;-80
2023/04/14 06:02:52;;;;;;;2.65;1.60;;;7.80;99.90;;;;;;5052337;28;20177;-80
2023/04/14 06:05:18;;;;;;;3.13;1.60;;;7.90;99.90;;;;;;5048693;28;20169;-79
2023/04/14 06:07:45;;;;;;;4.47;2.17;;;8.00;99.90;;;;;;5030704;28;20699;-80
2023/04/14 06:10:11;;;;;;;4.00;2.20;;;8.10;99.90;;;;;;5015266;28;20241;-79
2023/04/14 06:12:36;;;;;;;4.30;2.17;;;8.20;99.90;;;;;;5030944;28;20174;-80
2023/04/14 06:15:06;;;;;;;4.40;2.07;;;8.30;99.90;;;;;;5032812;28;20166;-81
2023/04/14 06:17:32;;;;;;;3.20;2.00;;;8.40;99.90;;;;;;5031084;28;20180;-81
2023/04/14 06:19:58;;;;;;;6.45;2.80;;;8.50;99.90;;;;;;5014702;28;20189;-81
2023/04/14 06:22:28;;;;;;;3.97;2.70;;;8.60;99.90;;;;;;5032531;28;20182;-81
2023/04/14 06:24:57;;;;;;;4.90;2.03;;;8.70;99.90;;;;;;5030991;28;20584;-81
2023/04/14 06:27:23;;;;;;;4.90;1.80;;;8.80;99.90;;;;;;5031146;28;20246;-81
2023/04/14 06:29:50;;;;;;;4.85;2.50;;;8.90;99.90;;;;;;5030692;28;20296;-80
2023/04/14 06:32:19;;;;;;;4.47;2.10;;;9.10;99.90;;;;;;5031125;28;20170;-80
2023/04/14 06:34:47;;;;;;;4.72;1.80;;;9.60;99.90;;;;;;5031497;28;20165;-79
2023/04/14 06:37:13;;;;;;;4.30;2.20;;;10.40;99.90;;;;;;5031527;28;20177;-80
2023/04/14 06:39:40;;;;;;;5.22;2.10;;;11.30;99.90;;;;;;5030473;28;20213;-80
2023/04/14 06:42:05;;;;;;;4.37;1.50;;;12.20;99.90;;;;;;5030653;28;20205;-80
2023/04/14 06:44:31;;;;;;;7.27;2.20;;;13.00;99.90;;;;;;5031363;28;20166;-80
2023/04/14 06:46:57;;;;;;;3.37;1.83;;;14.00;99.90;;;;;;5030733;28;20212;-78
2023/04/14 06:49:23;;;;;;;4.17;1.90;;;14.90;99.90;;;;;;5031500;28;21284;-78
2023/04/14 06:51:49;;;;;;;7.27;2.07;;;15.90;99.90;;;;;;5031307;28;20950;-79
2023/04/14 06:54:15;;;;;;;2.80;1.70;;;16.70;99.90;;;;;;5030259;28;20943;-78
2023/04/14 06:56:41;;;;;;;5.30;2.10;;;17.80;99.90;;;;;;5029837;28;20587;-78
2023/04/14 06:59:06;;;;;;;6.70;2.13;;;18.70;99.90;;;;;;5030434;28;20620;-77
2023/04/14 07:01:32;;;;;;;7.07;2.60;;;19.40;99.90;;;;;;5029171;28;20188;-79
2023/04/14 07:03:58;;;;;;;7.10;2.67;;;20.30;99.90;;;;;;5013359;28;20173;-77
2023/04/14 07:06:25;;;;;;;4.97;1.73;;;20.90;99.90;;;;;;5029543;28;21124;-77
2023/04/14 07:08:51;;;;;;;3.70;1.70;;;21.80;99.90;;;;;;5031244;28;20216;-77
2023/04/14 07:11:16;;;;;;;5.13;1.87;;;22.60;99.90;;;;;;5029563;28;20580;-77
2023/04/14 07:13:42;;;;;;;5.10;2.10;;;23.40;99.90;;;;;;5031316;28;20591;-77
2023/04/14 07:16:08;;;;;;;5.60;1.60;;;24.20;99.90;;;;;;5029766;28;20652;-77
2023/04/14 07:18:34;;;;;;;4.73;1.27;;;24.90;99.90;;;;;;5031572;28;20384;-77
2023/04/14 07:21:00;;;;;;;3.20;1.30;;;25.60;99.90;;;;;;5029899;28;20664;-78
2023/04/14 07:23:27;;;;;;;3.87;1.73;;;26.20;99.90;;;;;;5032993;28;20945;-78
2023/04/14 07:25:55;;;;;;;3.93;1.53;;;26.70;99.90;;;;;;5042789;28;20592;-79
2023/04/14 07:28:23;;;;;;;3.97;1.50;;;27.00;99.90;;;;;;5036332;28;20729;-78
2023/04/14 07:30:49;;;;;;;2.57;1.23;;;27.20;92.70;;;;;;5037527;28;20193;-78
2023/04/14 07:33:18;;;;;;;2.80;1.20;;;27.60;93.00;;;;;;5038608;28;20592;-78
2023/04/14 07:35:51;;;;;;;3.40;1.50;;;27.70;92.70;;;;;;5036463;28;20584;-78
2023/04/14 07:38:18;;;;;;;2.90;1.10;;;27.70;83.40;;;;;;5034121;28;20619;-78
2023/04/14 07:40:43;;;;;;;3.90;1.43;;;27.60;89.30;;;;;;5042339;28;20588;-79
2023/04/14 07:43:10;;;;;;;3.97;1.60;;;27.50;87.30;;;;;;5040108;28;20595;-78
2023/04/14 07:45:36;;;;;;;3.73;1.60;;;27.50;87.20;;;;;;5043180;28;20181;-78
2023/04/14 07:48:01;;;;;;;3.40;1.50;;;27.80;87.70;;;;;;5013689;28;21211;-79
2023/04/14 07:50:27;;;;;;;3.30;1.40;;;28.10;85.90;;;;;;5013555;28;20210;-78
2023/04/14 07:52:53;;;;;;;4.10;1.33;;;28.30;83.80;;;;;;5050471;28;20240;-78
2023/04/14 07:55:19;;;;;;;4.23;1.37;;;28.60;83.30;;;;;;5050986;28;20176;-78
2023/04/14 07:57:44;;;;;;;4.93;1.00;;;28.70;80.30;;;;;;5043876;28;20197;-77
2023/04/14 08:00:11;;;;;;;3.43;1.23;;;28.40;78.50;;;;;;5035318;28;20539;-78
2023/04/14 08:02:39;;;;;;;4.50;1.20;;;28.60;78.40;;;;;;5034747;28;20639;-78
2023/04/14 08:05:05;;;;;;;2.43;1.20;;;28.90;78.30;;;;;;5034120;28;20576;-77
2023/04/14 08:07:31;;;;;;;3.10;1.10;;;28.80;75.20;;;;;;5033339;28;20181;-78
2023/04/14 08:09:57;;;;;;;3.23;1.30;;;28.80;73.90;;;;;;5034409;28;20671;-78
2023/04/14 08:12:23;;;;;;;2.60;1.47;;;28.90;73.60;;;;;;5034305;28;20604;-78
2023/04/14 08:14:51;;;;;;;4.13;1.20;;;28.90;71.30;;;;;;5032944;28;20169;-78
2023/04/14 08:17:17;;;;;;;2.77;1.80;;;29.00;71.60;;;;;;5034194;28;20589;-77
2023/04/14 08:19:42;;;;;;;3.03;1.17;;;28.90;67.20;;;;;;5034277;28;20579;-77
2023/04/14 08:22:08;;;;;;;3.37;1.10;;;29.00;68.50;;;;;;5033589;28;20181;-78
2023/04/14 08:24:34;;;;;;;4.07;1.00;;;29.40;69.60;;;;;;5037878;28;20388;-78
2023/04/14 08:27:01;;;;;;;5.10;1.90;;;29.80;68.60;;;;;;5033902;28;20197;-78
2023/04/14 08:29:27;;;;;;;2.97;1.20;;;29.70;63.90;;;;;;5034412;28;20275;-78
2023/04/14 08:31:52;;;;;;;4.53;1.30;;;29.60;63.80;;;;;;5032574;28;20570;-77
2023/04/14 08:34:18;;;;;;;3.90;1.63;;;29.80;63.10;;;;;;5034354;28;20650;-78
2023/04/14 08:36:45;;;;;;;3.30;1.10;;;29.60;60.30;;;;;;5042507;28;20173;-77
2023/04/14 08:39:11;;;;;;;2.97;1.30;;;29.40;57.40;;;;;;5045056;28;20830;-76
2023/04/14 08:41:38;;;;;;;3.00;1.00;;;28.70;54.10;;;;;;5026584;28;20598;-78
2023/04/14 08:44:04;;;;;;;3.60;1.33;;;28.40;55.30;;;;;;5043633;28;20195;-79
2023/04/14 08:46:30;;;;;;;3.83;1.20;;;28.00;55.10;;;;;;5044922;28;20679;-78
2023/04/14 08:49:09;;;;;;;3.60;1.20;;;27.50;54.50;;;;;;5023825;28;20631;-78
2023/04/14 08:51:37;;;;;;;3.47;0.87;;;27.00;49.60;;;;;;5041843;28;20946;-78
2023/04/14 08:54:06;;;;;;;5.47;1.47;;;26.50;53.20;;;;;;5040768;28;21134;-78
2023/04/14 08:56:37;;;;;;;4.10;1.30;;;26.40;53.70;;;;;;5041754;28;20588;-79
2023/04/14 08:59:07;;;;;;;3.70;1.10;;;26.20;54.20;;;;;;5046600;28;20610;-78
2023/04/14 09:01:33;;;;;;;5.23;1.67;;;25.90;54.50;;;;;;5052276;28;20587;-78
2023/04/14 09:04:04;;;;;;;5.00;1.43;;;25.70;54.70;;;;;;5047169;28;20591;-77
2023/04/14 09:06:33;;;;;;;3.57;1.13;;;25.60;53.60;;;;;;5046484;28;20591;-78
2023/04/14 09:09:06;;;;;;;5.40;1.40;;;25.80;55.10;;;;;;5051550;28;20714;-78
2023/04/14 09:11:32;;;;;;;4.83;1.20;;;26.10;55.90;;;;;;5053292;28;20587;-78
2023/04/14 09:13:59;;;;;;;3.90;0.80;;;26.60;57.20;;;;;;5052855;28;20594;-78
2023/04/14 09:16:26;;;;;;;5.43;1.07;;;27.00;55.80;;;;;;5053309;28;21115;-79
2023/04/14 09:18:53;;;;;;;3.23;0.80;;;27.00;55.00;;;;;;5045816;28;20623;-77
2023/04/14 09:21:20;;;;;;;3.23;1.23;;;27.20;54.50;;;;;;5032679;28;20669;-77
2023/04/14 09:23:46;;;;;;;3.93;1.10;;;27.40;52.70;;;;;;5041539;28;20683;-78
2023/04/14 09:26:12;;;;;;;3.80;0.90;;;27.50;53.10;;;;;;5011705;28;20676;-76
2023/04/14 09:28:38;;;;;;;5.17;1.00;;;27.70;53.00;;;;;;5036025;28;20750;-77
2023/04/14 09:31:04;;;;;;;2.37;0.90;;;27.60;52.00;;;;;;5034426;28;20651;-77
2023/04/14 09:33:31;;;;;;;4.53;1.00;;;27.50;51.30;;;;;;5043160;28;20678;-76
2023/04/14 09:35:57;;;;;;;1.80;0.70;;;27.60;52.20;;;;;;5044389;28;20601;-78
2023/04/14 09:38:35;;;;;;;2.97;0.87;;;28.00;52.70;;;;;;5040729;28;21355;-79
2023/04/14 09:41:02;;;;;;;2.50;0.80;;;28.30;50.90;;;;;;5035678;28;20603;-78
2023/04/14 09:43:29;;;;;;;3.10;0.90;;;28.20;51.90;;;;;;5040810;28;21127;-79
2023/04/14 09:45:57;;;;;;;2.70;0.80;;;28.60;53.00;;;;;;5046605;28;20595;-77
2023/04/14 09:48:23;;;;;;;3.00;1.43;;;29.10;53.10;;;;;;5045868;28;20633;-77
2023/04/14 09:51:04;;;;;;;5.00;0.90;;;29.30;50.70;;;;;;5043696;28;21180;-75
2023/04/14 09:53:35;;;;;;;3.50;0.70;;;29.40;48.50;;;;;;5029795;28;20594;-77
2023/04/14 09:56:04;;;;;;;3.40;1.10;;;29.30;49.30;;;;;;5042670;28;20634;-78
2023/04/14 09:58:33;;;;;;;2.43;0.80;;;29.10;48.60;;;;;;5049615;28;20620;-78
2023/04/14 10:01:01;;;;;;;2.67;0.80;;;29.10;48.90;;;;;;5048192;28;20633;-79
2023/04/14 10:03:47;;;;;;;4.67;1.10;;;29.30;48.40;;;;;;5035987;28;20670;-79
2023/04/14 10:06:17;;;;;;;3.33;0.90;;;29.50;48.00;;;;;;5024820;28;20599;-77
2023/04/14 10:08:54;;;;;;;3.60;1.30;;;29.40;47.50;;;;;;5032376;28;20629;-78
2023/04/14 10:11:28;;;;;;;3.03;0.97;;;29.60;46.70;;;;;;5034469;28;20959;-79
2023/04/14 10:14:04;;;;;;;4.13;1.10;;;29.50;47.10;;;;;;5034250;28;20577;-79
2023/04/14 10:16:31;;;;;;;2.50;0.90;;;29.30;43.40;;;;;;5033437;28;20634;-78
2023/04/14 10:18:58;;;;;;;2.90;1.27;;;28.60;43.30;;;;;;5029942;28;20669;-78
2023/04/14 10:21:24;;;;;;;2.63;1.00;;;28.00;43.40;;;;;;5013768;28;20607;-78
2023/04/14 10:23:51;;;;;;;3.17;0.80;;;27.50;42.30;;;;;;5030426;28;20671;-77
2023/04/14 10:26:18;;;;;;;3.33;0.90;;;27.20;44.00;;;;;;5031181;28;20592;-77
2023/04/14 10:28:52;;;;;;;2.80;0.97;;;27.30;45.20;;;;;;5030168;28;20628;-77
2023/04/14 10:31:31;;;;;;;3.90;1.00;;;27.30;42.10;;;;;;5029753;28;20651;-76
2023/04/14 10:33:57;;;;;;;2.90;1.10;;;27.10;43.30;;;;;;5047999;28;20599;-77
2023/04/14 10:36:24;;;;;;;2.40;0.83;;;26.70;44.10;;;;;;5037608;28;20588;-77
2023/04/14 10:39:00;;;;;;;2.03;1.00;;;26.20;44.00;;;;;;5029666;28;20699;-78
2023/04/14 10:41:35;;;;;;;3.40;0.90;;;26.00;44.30;;;;;;5029788;28;20603;-77
2023/04/14 10:44:01;;;;;;;3.93;1.67;;;26.00;46.20;;;;;;5020984;28;20719;-78
2023/04/14 10:46:42;;;;;;;3.20;0.90;;;25.90;45.20;;;;;;5009809;28;20725;-78
2023/04/14 10:49:11;;;;;;;3.73;1.00;;;25.70;45.50;;;;;;5029891;28;20225;-78
2023/04/14 10:51:36;;;;;;;2.57;0.83;;;25.70;46.70;;;;;;5028617;28;20596;-78
2023/04/14 10:54:03;;;;;;;2.97;0.90;;;25.90;47.30;;;;;;5028966;28;20573;-78
2023/04/14 10:56:29;;;;;;;1.80;0.60;;;26.10;47.30;;;;;;5028223;28;20170;-78
2023/04/14 10:58:57;;;;;;;2.17;0.80;;;26.20;47.20;;;;;;5028675;28;20607;-78
2023/04/14 11:01:25;;;;;;;2.23;0.90;;;26.50;46.70;;;;;;5030644;28;20916;-78
2023/04/14 11:03:53;;;;;;;3.03;1.10;;;26.70;42.60;;;;;;5030947;28;21159;-78
2023/04/14 11:06:44;;;;;;;2.23;0.97;;;26.40;44.20;;;;;;5029774;28;20570;-78
2023/04/14 11:09:22;;;;;;;2.90;0.80;;;26.10;44.40;;;;;;5012850;28;21305;-78
2023/04/14 11:11:48;;;;;;;2.60;0.80;;;26.10;43.90;;;;;;5030777;28;21003;-78
2023/04/14 11:14:14;;;;;;;4.20;2.03;;;25.90;43.90;;;;;;5028022;28;20627;-77
2023/04/14 11:16:43;;;;;;;2.13;0.80;;;25.80;44.70;;;;;;5027797;28;20179;-77
2023/04/14 11:19:13;;;;;;;4.07;0.87;;;25.80;45.20;;;;;;5028159;28;20623;-78
2023/04/14 11:21:52;;;;;;;4.10;1.10;;;25.50;44.40;;;;;;5033350;28;20612;-78
2023/04/14 11:24:20;;;;;;;2.97;0.80;;;25.40;44.20;;;;;;5029873;28;20623;-77
2023/04/14 11:26:46;;;;;;;4.87;1.10;;;25.10;44.20;;;;;;5014173;28;20592;-76
2023/04/14 11:29:12;;;;;;;2.23;0.70;;;24.80;43.70;;;;;;5031086;28;20643;-76
2023/04/14 11:31:38;;;;;;;2.40;0.70;;;24.60;44.90;;;;;;5030611;28;20573;-76
2023/04/14 11:34:07;;;;;;;2.50;1.00;;;24.70;45.30;;;;;;5027569;28;20638;-77
2023/04/14 11:36:38;;;;;;;5.13;0.80;;;24.80;46.20;;;;;;5027568;28;20244;-77
2023/04/14 11:39:07;;;;;;;2.43;0.80;;;25.00;46.20;;;;;;5029123;28;20608;-78
2023/04/14 11:41:32;;;;;;;6.20;0.90;;;24.90;44.30;;;;;;5028395;28;20971;-77
2023/04/14 11:43:58;;;;;;;2.23;0.70;;;24.70;45.30;;;;;;5028521;28;20600;-77
2023/04/14 11:46:24;;;;;;;4.07;1.27;;;24.60;44.00;;;;;;5027295;28;20212;-77
2023/04/14 11:48:56;;;;;;;3.73;0.90;;;24.30;44.40;;;;;;5029437;28;20756;-77
2023/04/14 11:51:31;;;;;;;5.70;0.90;;;24.00;42.00;;;;;;5029964;28;20924;-77
2023/04/14 11:53:58;;;;;;;2.60;0.77;;;23.90;42.90;;;;;;5029345;28;20576;-78
2023/04/14 11:56:24;;;;;;;4.05;1.00;;;23.60;42.30;;;;;;5028166;28;20722;-78
2023/04/14 11:58:52;;;;;;;5.07;1.20;;;23.30;41.30;;;;;;5035890;28;20726;-76
2023/04/14 12:01:24;;;;;;;3.70;1.10;;;22.90;41.30;;;;;;5030177;28;20231;-78
2023/04/14 12:03:51;;;;;;;2.30;1.10;;;22.80;42.40;;;;;;5032742;28;21326;-77
2023/04/14 12:06:17;;;;;;;3.13;1.10;;;22.70;42.60;;;;;;5028468;28;20599;-77
2023/04/14 12:08:49;;;;;;;2.63;0.80;;;22.40;42.40;;;;;;5030180;28;20612;-77
2023/04/14 12:11:16;;;;;;;2.67;0.80;;;22.20;42.70;;;;;;5028590;28;20776;-78
2023/04/14 12:13:43;;;;;;;3.00;0.70;;;22.00;41.70;;;;;;5029975;28;20265;-77
2023/04/14 12:16:10;;;;;;;2.73;0.80;;;22.00;43.00;;;;;;5028836;28;20584;-79
2023/04/14 12:18:35;;;;;;;3.27;0.70;;;22.10;43.90;;;;;;5029940;28;20608;-78
2023/04/14 12:21:03;;;;;;;2.33;0.80;;;22.00;42.60;;;;;;5027699;28;20601;-77
2023/04/14 12:23:34;;;;;;;2.03;0.80;;;21.90;42.50;;;;;;5030702;28;20214;-77
2023/04/14 12:26:01;;;;;;;3.00;0.73;;;21.80;42.90;;;;;;5032393;28;20691;-78
2023/04/14 12:28:28;;;;;;;2.17;0.70;;;21.80;43.40;;;;;;5032465;28;20611;-78
2023/04/14 12:30:59;;;;;;;2.77;0.70;;;21.80;43.10;;;;;;5032518;28;20644;-78
2023/04/14 12:33:29;;;;;;;5.47;0.90;;;21.40;42.10;;;;;;5032277;28;20584;-78
2023/04/14 12:36:05;;;;;;;3.27;0.70;;;21.40;43.00;;;;;;5037847;28;20611;-78
2023/04/14 12:38:32;;;;;;;2.30;0.60;;;21.40;43.10;;;;;;5036461;28;20672;-77
2023/04/14 12:40:57;;;;;;;2.45;0.80;;;21.50;44.10;;;;;;5037976;28;20747;-77
2023/04/14 12:43:35;;;;;;;2.10;0.80;;;21.70;42.30;;;;;;5001269;28;20174;-77
2023/04/14 12:46:04;;;;;;;2.00;0.67;;;21.40;41.80;;;;;;5034387;28;20654;-77
2023/04/14 12:48:57;;;;;;;2.00;0.77;;;21.30;42.90;;;;;;5046874;28;20640;-77
2023/04/14 12:51:23;;;;;;;2.53;0.80;;;21.40;41.30;;;;;;5039478;28;20596;-77
2023/04/14 12:53:49;;;;;;;3.70;1.43;;;21.30;42.70;;;;;;5043035;28;20574;-77
2023/04/14 12:56:21;;;;;;;3.17;0.70;;;21.20;42.30;;;;;;5033588;28;20173;-77
2023/04/14 12:58:47;;;;;;;3.53;0.80;;;21.10;42.30;;;;;;5041073;28;20642;-77
2023/04/14 13:01:15;;;;;;;3.60;0.80;;;20.90;41.10;;;;;;5020641;28;20724;-77